sensor_id;sensor_type;location;lat;lon;timestamp;P1;durP1;ratioP1;P2;durP2;ratioP2
16824;SDS011;8529;48.108;-1.706;2022-08-25T00:00:24;6.32;;;3.50;;
16824;SDS011;8529;48.108;-1.706;2022-08-25T00:02:53;6.70;;;3.47;;
16824;SDS011;8529;48.108;-1.706;2022-08-25T00:05:20;7.75;;;3.90;;
16824;SDS011;8529;48.108;-1.706;2022-08-25T00:07:50;4.90;;;3.35;;
16824;SDS011;8529;48.108;-1.706;2022-08-25T00:10:17;5.63;;;3.78;;
16824;SDS011;8529;48.108;-1.706;2022-08-25T00:12:45;6.07;;;4.05;;
16824;SDS011;8529;48.108;-1.706;2022-08-25T00:15:12;7.00;;;4.13;;
16824;SDS011;8529;48.108;-1.706;2022-08-25T00:17:39;5.43;;;4.03;;
16824;SDS011;8529;48.108;-1.706;2022-08-25T00:20:07;6.57;;;3.72;;
16824;SDS011;8529;48.108;-1.706;2022-08-25T00:22:34;6.80;;;4.35;;
16824;SDS011;8529;48.108;-1.706;2022-08-25T00:25:01;6.30;;;4.15;;
16824;SDS011;8529;48.108;-1.706;2022-08-25T00:27:29;6.13;;;4.40;;
16824;SDS011;8529;48.108;-1.706;2022-08-25T00:29:57;8.85;;;4.35;;
16824;SDS011;8529;48.108;-1.706;2022-08-25T00:32:24;8.02;;;5.03;;
16824;SDS011;8529;48.108;-1.706;2022-08-25T00:34:52;7.40;;;4.30;;
16824;SDS011;8529;48.108;-1.706;2022-08-25T00:37:19;8.18;;;5.05;;
16824;SDS011;8529;48.108;-1.706;2022-08-25T00:39:45;8.68;;;5.45;;
16824;SDS011;8529;48.108;-1.706;2022-08-25T00:42:12;8.73;;;5.60;;
16824;SDS011;8529;48.108;-1.706;2022-08-25T00:44:40;9.15;;;5.60;;
16824;SDS011;8529;48.108;-1.706;2022-08-25T00:47:09;7.25;;;4.80;;
16824;SDS011;8529;48.108;-1.706;2022-08-25T00:49:38;6.85;;;4.43;;
16824;SDS011;8529;48.108;-1.706;2022-08-25T00:52:10;8.68;;;4.95;;
16824;SDS011;8529;48.108;-1.706;2022-08-25T00:54:40;8.38;;;5.05;;
16824;SDS011;8529;48.108;-1.706;2022-08-25T00:57:11;7.95;;;5.00;;
16824;SDS011;8529;48.108;-1.706;2022-08-25T00:59:40;7.70;;;5.15;;
16824;SDS011;8529;48.108;-1.706;2022-08-25T01:02:10;7.25;;;5.15;;
16824;SDS011;8529;48.108;-1.706;2022-08-25T01:04:39;12.55;;;5.13;;
16824;SDS011;8529;48.108;-1.706;2022-08-25T01:07:06;9.10;;;5.30;;
16824;SDS011;8529;48.108;-1.706;2022-08-25T01:09:33;10.80;;;6.28;;
16824;SDS011;8529;48.108;-1.706;2022-08-25T01:12:00;10.15;;;5.53;;
16824;SDS011;8529;48.108;-1.706;2022-08-25T01:14:28;7.25;;;5.50;;
16824;SDS011;8529;48.108;-1.706;2022-08-25T01:16:56;5.32;;;4.68;;
16824;SDS011;8529;48.108;-1.706;2022-08-25T01:19:25;9.82;;;5.85;;
16824;SDS011;8529;48.108;-1.706;2022-08-25T01:21:55;8.50;;;5.65;;
16824;SDS011;8529;48.108;-1.706;2022-08-25T01:24:23;8.63;;;5.68;;
16824;SDS011;8529;48.108;-1.706;2022-08-25T01:26:55;8.40;;;5.78;;
16824;SDS011;8529;48.108;-1.706;2022-08-25T01:29:23;10.95;;;6.70;;
16824;SDS011;8529;48.108;-1.706;2022-08-25T01:31:51;10.18;;;6.97;;
16824;SDS011;8529;48.108;-1.706;2022-08-25T01:34:21;11.60;;;7.75;;
16824;SDS011;8529;48.108;-1.706;2022-08-25T01:36:49;15.43;;;8.70;;
16824;SDS011;8529;48.108;-1.706;2022-08-25T01:39:18;14.73;;;8.35;;
16824;SDS011;8529;48.108;-1.706;2022-08-25T01:41:48;10.02;;;7.30;;
16824;SDS011;8529;48.108;-1.706;2022-08-25T01:44:34;15.02;;;8.45;;
16824;SDS011;8529;48.108;-1.706;2022-08-25T01:47:02;16.20;;;9.02;;
16824;SDS011;8529;48.108;-1.706;2022-08-25T01:49:30;15.88;;;9.57;;
16824;SDS011;8529;48.108;-1.706;2022-08-25T01:51:59;14.00;;;9.95;;
16824;SDS011;8529;48.108;-1.706;2022-08-25T01:54:28;12.75;;;9.68;;
16824;SDS011;8529;48.108;-1.706;2022-08-25T01:56:56;14.10;;;9.43;;
16824;SDS011;8529;48.108;-1.706;2022-08-25T01:59:23;13.75;;;8.98;;
16824;SDS011;8529;48.108;-1.706;2022-08-25T02:01:52;13.23;;;9.02;;
16824;SDS011;8529;48.108;-1.706;2022-08-25T02:04:19;14.38;;;9.57;;
16824;SDS011;8529;48.108;-1.706;2022-08-25T02:06:46;14.82;;;9.00;;
16824;SDS011;8529;48.108;-1.706;2022-08-25T02:09:14;15.20;;;9.10;;
16824;SDS011;8529;48.108;-1.706;2022-08-25T02:11:44;13.15;;;8.60;;
16824;SDS011;8529;48.108;-1.706;2022-08-25T02:14:12;10.48;;;7.68;;
16824;SDS011;8529;48.108;-1.706;2022-08-25T02:16:41;12.93;;;8.70;;
16824;SDS011;8529;48.108;-1.706;2022-08-25T02:19:12;11.35;;;7.95;;
16824;SDS011;8529;48.108;-1.706;2022-08-25T02:21:39;13.88;;;8.18;;
16824;SDS011;8529;48.108;-1.706;2022-08-25T02:24:06;12.90;;;8.10;;
16824;SDS011;8529;48.108;-1.706;2022-08-25T02:26:34;10.38;;;7.85;;
16824;SDS011;8529;48.108;-1.706;2022-08-25T02:29:03;9.50;;;7.25;;
16824;SDS011;8529;48.108;-1.706;2022-08-25T02:31:31;10.02;;;7.85;;
16824;SDS011;8529;48.108;-1.706;2022-08-25T02:33:59;10.02;;;7.15;;
16824;SDS011;8529;48.108;-1.706;2022-08-25T02:36:26;9.10;;;6.25;;
16824;SDS011;8529;48.108;-1.706;2022-08-25T02:38:53;9.65;;;7.35;;
16824;SDS011;8529;48.108;-1.706;2022-08-25T02:41:21;8.35;;;6.18;;
16824;SDS011;8529;48.108;-1.706;2022-08-25T02:43:49;9.55;;;6.03;;
16824;SDS011;8529;48.108;-1.706;2022-08-25T02:46:19;8.38;;;5.95;;
16824;SDS011;8529;48.108;-1.706;2022-08-25T02:48:48;7.10;;;5.47;;
16824;SDS011;8529;48.108;-1.706;2022-08-25T02:51:17;9.63;;;5.93;;
16824;SDS011;8529;48.108;-1.706;2022-08-25T02:53:45;7.78;;;5.32;;
16824;SDS011;8529;48.108;-1.706;2022-08-25T02:56:12;8.43;;;5.75;;
16824;SDS011;8529;48.108;-1.706;2022-08-25T02:58:40;8.00;;;5.10;;
16824;SDS011;8529;48.108;-1.706;2022-08-25T03:01:08;5.82;;;4.97;;
16824;SDS011;8529;48.108;-1.706;2022-08-25T03:03:38;12.23;;;5.43;;
16824;SDS011;8529;48.108;-1.706;2022-08-25T03:06:06;9.15;;;5.95;;
16824;SDS011;8529;48.108;-1.706;2022-08-25T03:08:34;6.72;;;5.32;;
16824;SDS011;8529;48.108;-1.706;2022-08-25T03:11:01;7.93;;;5.25;;
16824;SDS011;8529;48.108;-1.706;2022-08-25T03:13:28;7.10;;;5.32;;
16824;SDS011;8529;48.108;-1.706;2022-08-25T03:15:56;7.45;;;5.20;;
16824;SDS011;8529;48.108;-1.706;2022-08-25T03:18:23;5.82;;;5.22;;
16824;SDS011;8529;48.108;-1.706;2022-08-25T03:20:52;8.55;;;5.63;;
16824;SDS011;8529;48.108;-1.706;2022-08-25T03:23:19;6.65;;;5.43;;
16824;SDS011;8529;48.108;-1.706;2022-08-25T03:25:46;7.53;;;5.25;;
16824;SDS011;8529;48.108;-1.706;2022-08-25T03:28:30;7.93;;;4.80;;
16824;SDS011;8529;48.108;-1.706;2022-08-25T03:30:57;7.97;;;4.38;;
16824;SDS011;8529;48.108;-1.706;2022-08-25T03:33:24;7.22;;;4.40;;
16824;SDS011;8529;48.108;-1.706;2022-08-25T03:35:53;8.27;;;4.18;;
16824;SDS011;8529;48.108;-1.706;2022-08-25T03:38:20;7.13;;;5.00;;
16824;SDS011;8529;48.108;-1.706;2022-08-25T03:40:47;8.35;;;4.65;;
16824;SDS011;8529;48.108;-1.706;2022-08-25T03:43:15;7.97;;;4.45;;
16824;SDS011;8529;48.108;-1.706;2022-08-25T03:45:42;5.90;;;4.05;;
16824;SDS011;8529;48.108;-1.706;2022-08-25T03:48:12;6.13;;;4.22;;
16824;SDS011;8529;48.108;-1.706;2022-08-25T03:50:42;7.10;;;4.28;;
16824;SDS011;8529;48.108;-1.706;2022-08-25T03:53:11;7.43;;;4.53;;
16824;SDS011;8529;48.108;-1.706;2022-08-25T03:55:38;6.40;;;3.97;;
16824;SDS011;8529;48.108;-1.706;2022-08-25T03:58:05;4.32;;;3.63;;
16824;SDS011;8529;48.108;-1.706;2022-08-25T04:00:32;7.53;;;3.92;;
16824;SDS011;8529;48.108;-1.706;2022-08-25T04:02:59;4.85;;;3.75;;
16824;SDS011;8529;48.108;-1.706;2022-08-25T04:05:26;7.05;;;3.70;;
16824;SDS011;8529;48.108;-1.706;2022-08-25T04:07:53;5.10;;;3.42;;
16824;SDS011;8529;48.108;-1.706;2022-08-25T04:10:22;5.90;;;3.65;;
16824;SDS011;8529;48.108;-1.706;2022-08-25T04:12:49;6.75;;;3.60;;
16824;SDS011;8529;48.108;-1.706;2022-08-25T04:15:16;5.80;;;3.40;;
16824;SDS011;8529;48.108;-1.706;2022-08-25T04:17:43;7.35;;;3.60;;
16824;SDS011;8529;48.108;-1.706;2022-08-25T04:20:10;4.72;;;3.70;;
16824;SDS011;8529;48.108;-1.706;2022-08-25T04:22:37;3.65;;;3.05;;
16824;SDS011;8529;48.108;-1.706;2022-08-25T04:25:05;4.93;;;3.40;;
16824;SDS011;8529;48.108;-1.706;2022-08-25T04:27:34;5.10;;;3.45;;
16824;SDS011;8529;48.108;-1.706;2022-08-25T04:30:02;5.55;;;4.80;;
16824;SDS011;8529;48.108;-1.706;2022-08-25T04:32:30;6.50;;;3.75;;
16824;SDS011;8529;48.108;-1.706;2022-08-25T04:34:57;6.20;;;4.00;;
16824;SDS011;8529;48.108;-1.706;2022-08-25T04:37:24;5.68;;;3.95;;
16824;SDS011;8529;48.108;-1.706;2022-08-25T04:39:51;8.27;;;4.30;;
16824;SDS011;8529;48.108;-1.706;2022-08-25T04:42:18;5.82;;;4.20;;
16824;SDS011;8529;48.108;-1.706;2022-08-25T04:44:47;8.38;;;4.78;;
16824;SDS011;8529;48.108;-1.706;2022-08-25T04:47:16;6.20;;;4.18;;
16824;SDS011;8529;48.108;-1.706;2022-08-25T04:49:43;6.32;;;4.55;;
16824;SDS011;8529;48.108;-1.706;2022-08-25T04:52:10;6.65;;;4.70;;
16824;SDS011;8529;48.108;-1.706;2022-08-25T04:54:37;6.63;;;4.78;;
16824;SDS011;8529;48.108;-1.706;2022-08-25T04:57:04;6.15;;;4.97;;
16824;SDS011;8529;48.108;-1.706;2022-08-25T04:59:31;7.78;;;5.65;;
16824;SDS011;8529;48.108;-1.706;2022-08-25T05:02:00;7.22;;;5.43;;
16824;SDS011;8529;48.108;-1.706;2022-08-25T05:04:29;6.03;;;5.10;;
16824;SDS011;8529;48.108;-1.706;2022-08-25T05:06:57;7.15;;;5.07;;
16824;SDS011;8529;48.108;-1.706;2022-08-25T05:09:24;8.57;;;5.70;;
16824;SDS011;8529;48.108;-1.706;2022-08-25T05:11:52;6.68;;;5.05;;
16824;SDS011;8529;48.108;-1.706;2022-08-25T05:14:19;6.78;;;5.07;;
16824;SDS011;8529;48.108;-1.706;2022-08-25T05:16:46;7.68;;;5.07;;
16824;SDS011;8529;48.108;-1.706;2022-08-25T05:19:15;6.97;;;5.05;;
16824;SDS011;8529;48.108;-1.706;2022-08-25T05:21:42;7.85;;;4.90;;
16824;SDS011;8529;48.108;-1.706;2022-08-25T05:24:09;7.32;;;5.53;;
16824;SDS011;8529;48.108;-1.706;2022-08-25T05:26:37;7.25;;;4.35;;
16824;SDS011;8529;48.108;-1.706;2022-08-25T05:29:04;4.50;;;3.97;;
16824;SDS011;8529;48.108;-1.706;2022-08-25T05:31:32;6.22;;;4.35;;
16824;SDS011;8529;48.108;-1.706;2022-08-25T05:33:59;8.40;;;4.57;;
16824;SDS011;8529;48.108;-1.706;2022-08-25T05:36:33;6.88;;;4.18;;
16824;SDS011;8529;48.108;-1.706;2022-08-25T05:39:01;5.47;;;3.85;;
16824;SDS011;8529;48.108;-1.706;2022-08-25T05:41:29;4.15;;;3.70;;
16824;SDS011;8529;48.108;-1.706;2022-08-25T05:43:57;6.72;;;3.83;;
16824;SDS011;8529;48.108;-1.706;2022-08-25T05:46:24;6.05;;;3.75;;
16824;SDS011;8529;48.108;-1.706;2022-08-25T05:48:51;5.43;;;3.80;;
16824;SDS011;8529;48.108;-1.706;2022-08-25T05:51:19;6.07;;;4.38;;
16824;SDS011;8529;48.108;-1.706;2022-08-25T05:53:48;8.05;;;4.45;;
16824;SDS011;8529;48.108;-1.706;2022-08-25T05:56:16;6.40;;;3.80;;
16824;SDS011;8529;48.108;-1.706;2022-08-25T05:58:43;9.80;;;4.00;;
16824;SDS011;8529;48.108;-1.706;2022-08-25T06:01:17;6.35;;;3.80;;
16824;SDS011;8529;48.108;-1.706;2022-08-25T06:04:03;4.85;;;3.50;;
16824;SDS011;8529;48.108;-1.706;2022-08-25T06:06:30;7.32;;;3.67;;
16824;SDS011;8529;48.108;-1.706;2022-08-25T06:09:00;7.63;;;4.00;;
16824;SDS011;8529;48.108;-1.706;2022-08-25T06:11:30;5.93;;;4.10;;
16824;SDS011;8529;48.108;-1.706;2022-08-25T06:13:57;6.95;;;4.00;;
16824;SDS011;8529;48.108;-1.706;2022-08-25T06:16:24;5.18;;;3.92;;
16824;SDS011;8529;48.108;-1.706;2022-08-25T06:18:51;6.28;;;3.92;;
16824;SDS011;8529;48.108;-1.706;2022-08-25T06:21:19;6.20;;;4.10;;
16824;SDS011;8529;48.108;-1.706;2022-08-25T06:23:46;5.97;;;4.05;;
16824;SDS011;8529;48.108;-1.706;2022-08-25T06:26:15;5.47;;;3.88;;
16824;SDS011;8529;48.108;-1.706;2022-08-25T06:28:42;5.40;;;4.00;;
16824;SDS011;8529;48.108;-1.706;2022-08-25T06:31:09;5.18;;;3.55;;
16824;SDS011;8529;48.108;-1.706;2022-08-25T06:33:36;6.38;;;3.90;;
16824;SDS011;8529;48.108;-1.706;2022-08-25T06:36:03;6.78;;;3.65;;
16824;SDS011;8529;48.108;-1.706;2022-08-25T06:38:30;4.80;;;3.70;;
16824;SDS011;8529;48.108;-1.706;2022-08-25T06:41:00;5.40;;;4.35;;
16824;SDS011;8529;48.108;-1.706;2022-08-25T06:43:28;6.50;;;3.60;;
16824;SDS011;8529;48.108;-1.706;2022-08-25T06:45:57;5.40;;;3.65;;
16824;SDS011;8529;48.108;-1.706;2022-08-25T06:48:24;6.22;;;3.63;;
16824;SDS011;8529;48.108;-1.706;2022-08-25T06:50:51;4.95;;;3.67;;
16824;SDS011;8529;48.108;-1.706;2022-08-25T06:53:18;8.27;;;3.95;;
16824;SDS011;8529;48.108;-1.706;2022-08-25T06:55:44;9.40;;;3.90;;
16824;SDS011;8529;48.108;-1.706;2022-08-25T06:58:21;7.30;;;3.50;;
16824;SDS011;8529;48.108;-1.706;2022-08-25T07:00:50;8.85;;;3.83;;
16824;SDS011;8529;48.108;-1.706;2022-08-25T07:03:17;8.52;;;4.03;;
16824;SDS011;8529;48.108;-1.706;2022-08-25T07:05:49;7.15;;;3.90;;
16824;SDS011;8529;48.108;-1.706;2022-08-25T07:08:16;7.78;;;4.03;;
16824;SDS011;8529;48.108;-1.706;2022-08-25T07:10:43;6.80;;;3.42;;
16824;SDS011;8529;48.108;-1.706;2022-08-25T07:13:10;8.07;;;3.80;;
16824;SDS011;8529;48.108;-1.706;2022-08-25T07:15:37;8.52;;;3.50;;
16824;SDS011;8529;48.108;-1.706;2022-08-25T07:18:06;8.65;;;3.45;;
16824;SDS011;8529;48.108;-1.706;2022-08-25T07:20:33;7.95;;;3.35;;
16824;SDS011;8529;48.108;-1.706;2022-08-25T07:23:01;7.38;;;4.22;;
16824;SDS011;8529;48.108;-1.706;2022-08-25T07:25:28;7.50;;;3.20;;
16824;SDS011;8529;48.108;-1.706;2022-08-25T07:27:55;7.57;;;3.28;;
16824;SDS011;8529;48.108;-1.706;2022-08-25T07:30:22;11.85;;;3.33;;
16824;SDS011;8529;48.108;-1.706;2022-08-25T07:32:49;9.95;;;3.08;;
16824;SDS011;8529;48.108;-1.706;2022-08-25T07:35:19;12.15;;;3.40;;
16824;SDS011;8529;48.108;-1.706;2022-08-25T07:37:48;6.80;;;2.92;;
16824;SDS011;8529;48.108;-1.706;2022-08-25T07:40:18;7.57;;;2.95;;
16824;SDS011;8529;48.108;-1.706;2022-08-25T07:42:48;5.65;;;2.80;;
16824;SDS011;8529;48.108;-1.706;2022-08-25T07:45:16;7.45;;;3.50;;
16824;SDS011;8529;48.108;-1.706;2022-08-25T07:47:44;8.07;;;2.67;;
16824;SDS011;8529;48.108;-1.706;2022-08-25T07:50:12;8.75;;;3.08;;
16824;SDS011;8529;48.108;-1.706;2022-08-25T07:52:40;7.25;;;2.70;;
16824;SDS011;8529;48.108;-1.706;2022-08-25T07:55:08;5.03;;;2.47;;
16824;SDS011;8529;48.108;-1.706;2022-08-25T07:57:37;5.80;;;2.60;;
16824;SDS011;8529;48.108;-1.706;2022-08-25T08:00:05;6.13;;;2.38;;
16824;SDS011;8529;48.108;-1.706;2022-08-25T08:02:34;6.07;;;2.40;;
16824;SDS011;8529;48.108;-1.706;2022-08-25T08:05:03;4.32;;;2.28;;
16824;SDS011;8529;48.108;-1.706;2022-08-25T08:07:30;3.30;;;2.08;;
16824;SDS011;8529;48.108;-1.706;2022-08-25T08:09:59;3.65;;;2.20;;
16824;SDS011;8529;48.108;-1.706;2022-08-25T08:12:27;5.43;;;2.60;;
16824;SDS011;8529;48.108;-1.706;2022-08-25T08:14:54;5.28;;;2.53;;
16824;SDS011;8529;48.108;-1.706;2022-08-25T08:17:21;4.25;;;2.55;;
16824;SDS011;8529;48.108;-1.706;2022-08-25T08:19:48;6.07;;;2.20;;
16824;SDS011;8529;48.108;-1.706;2022-08-25T08:22:16;3.97;;;2.03;;
16824;SDS011;8529;48.108;-1.706;2022-08-25T08:24:43;3.75;;;1.95;;
16824;SDS011;8529;48.108;-1.706;2022-08-25T08:27:12;5.65;;;2.50;;
16824;SDS011;8529;48.108;-1.706;2022-08-25T08:29:40;6.32;;;2.90;;
16824;SDS011;8529;48.108;-1.706;2022-08-25T08:32:09;4.20;;;2.75;;
16824;SDS011;8529;48.108;-1.706;2022-08-25T08:34:38;7.75;;;3.03;;
16824;SDS011;8529;48.108;-1.706;2022-08-25T08:37:06;6.95;;;2.92;;
16824;SDS011;8529;48.108;-1.706;2022-08-25T08:39:33;6.78;;;3.08;;
16824;SDS011;8529;48.108;-1.706;2022-08-25T08:42:05;5.40;;;2.88;;
16824;SDS011;8529;48.108;-1.706;2022-08-25T08:44:54;5.95;;;3.30;;
16824;SDS011;8529;48.108;-1.706;2022-08-25T08:47:31;5.90;;;3.60;;
16824;SDS011;8529;48.108;-1.706;2022-08-25T08:50:23;6.70;;;3.45;;
16824;SDS011;8529;48.108;-1.706;2022-08-25T08:52:56;4.68;;;3.28;;
16824;SDS011;8529;48.108;-1.706;2022-08-25T08:55:30;4.38;;;2.92;;
16824;SDS011;8529;48.108;-1.706;2022-08-25T08:57:58;5.15;;;3.05;;
16824;SDS011;8529;48.108;-1.706;2022-08-25T09:00:32;5.10;;;3.03;;
16824;SDS011;8529;48.108;-1.706;2022-08-25T09:03:06;4.82;;;2.92;;
16824;SDS011;8529;48.108;-1.706;2022-08-25T09:05:46;5.72;;;2.85;;
16824;SDS011;8529;48.108;-1.706;2022-08-25T09:08:16;3.42;;;2.40;;
16824;SDS011;8529;48.108;-1.706;2022-08-25T09:10:48;6.72;;;2.28;;
16824;SDS011;8529;48.108;-1.706;2022-08-25T09:13:23;2.30;;;1.92;;
16824;SDS011;8529;48.108;-1.706;2022-08-25T09:16:01;4.40;;;1.83;;
16824;SDS011;8529;48.108;-1.706;2022-08-25T09:18:54;3.80;;;1.52;;
16824;SDS011;8529;48.108;-1.706;2022-08-25T09:21:37;3.47;;;1.50;;
16824;SDS011;8529;48.108;-1.706;2022-08-25T09:24:12;2.30;;;1.52;;
16824;SDS011;8529;48.108;-1.706;2022-08-25T09:26:51;3.35;;;1.60;;
16824;SDS011;8529;48.108;-1.706;2022-08-25T09:29:27;3.75;;;1.50;;
16824;SDS011;8529;48.108;-1.706;2022-08-25T09:32:03;2.80;;;1.52;;
16824;SDS011;8529;48.108;-1.706;2022-08-25T09:34:33;2.35;;;1.38;;
16824;SDS011;8529;48.108;-1.706;2022-08-25T09:37:00;3.05;;;1.13;;
16824;SDS011;8529;48.108;-1.706;2022-08-25T09:39:27;4.38;;;1.30;;
16824;SDS011;8529;48.108;-1.706;2022-08-25T09:41:55;4.88;;;1.50;;
16824;SDS011;8529;48.108;-1.706;2022-08-25T09:44:23;3.78;;;1.77;;
16824;SDS011;8529;48.108;-1.706;2022-08-25T09:47:01;2.30;;;1.63;;
16824;SDS011;8529;48.108;-1.706;2022-08-25T09:49:35;1.95;;;1.40;;
16824;SDS011;8529;48.108;-1.706;2022-08-25T09:55:00;3.25;;;1.70;;
16824;SDS011;8529;48.108;-1.706;2022-08-25T09:57:50;2.28;;;1.48;;
16824;SDS011;8529;48.108;-1.706;2022-08-25T10:00:20;1.92;;;1.48;;
16824;SDS011;8529;48.108;-1.706;2022-08-25T10:03:04;2.78;;;1.10;;
16824;SDS011;8529;48.108;-1.706;2022-08-25T10:05:37;1.50;;;1.10;;
16824;SDS011;8529;48.108;-1.706;2022-08-25T10:08:20;2.03;;;1.08;;
16824;SDS011;8529;48.108;-1.706;2022-08-25T10:10:52;1.88;;;1.00;;
16824;SDS011;8529;48.108;-1.706;2022-08-25T10:13:30;3.65;;;1.20;;
16824;SDS011;8529;48.108;-1.706;2022-08-25T10:16:02;1.10;;;1.00;;
16824;SDS011;8529;48.108;-1.706;2022-08-25T10:18:33;3.45;;;1.30;;
16824;SDS011;8529;48.108;-1.706;2022-08-25T10:21:01;1.10;;;1.00;;
16824;SDS011;8529;48.108;-1.706;2022-08-25T10:23:30;1.38;;;1.00;;
16824;SDS011;8529;48.108;-1.706;2022-08-25T10:26:01;2.20;;;1.48;;
16824;SDS011;8529;48.108;-1.706;2022-08-25T10:28:31;2.70;;;1.00;;
16824;SDS011;8529;48.108;-1.706;2022-08-25T10:31:05;0.90;;;0.88;;
16824;SDS011;8529;48.108;-1.706;2022-08-25T10:33:42;2.25;;;0.80;;
16824;SDS011;8529;48.108;-1.706;2022-08-25T10:36:19;0.77;;;0.65;;
16824;SDS011;8529;48.108;-1.706;2022-08-25T10:38:49;1.98;;;0.70;;
16824;SDS011;8529;48.108;-1.706;2022-08-25T10:41:23;1.20;;;0.60;;
16824;SDS011;8529;48.108;-1.706;2022-08-25T10:44:11;1.13;;;0.75;;
16824;SDS011;8529;48.108;-1.706;2022-08-25T10:47:10;1.27;;;0.60;;
16824;SDS011;8529;48.108;-1.706;2022-08-25T10:49:55;2.60;;;0.40;;
16824;SDS011;8529;48.108;-1.706;2022-08-25T10:52:30;1.20;;;0.98;;
16824;SDS011;8529;48.108;-1.706;2022-08-25T10:55:05;2.88;;;0.70;;
16824;SDS011;8529;48.108;-1.706;2022-08-25T10:57:38;2.65;;;0.70;;
16824;SDS011;8529;48.108;-1.706;2022-08-25T11:00:16;1.50;;;0.60;;
16824;SDS011;8529;48.108;-1.706;2022-08-25T11:02:52;1.15;;;0.60;;
16824;SDS011;8529;48.108;-1.706;2022-08-25T11:05:39;1.63;;;0.80;;
16824;SDS011;8529;48.108;-1.706;2022-08-25T11:08:10;1.55;;;0.60;;
16824;SDS011;8529;48.108;-1.706;2022-08-25T11:10:42;2.00;;;0.80;;
16824;SDS011;8529;48.108;-1.706;2022-08-25T11:13:14;1.05;;;0.60;;
16824;SDS011;8529;48.108;-1.706;2022-08-25T11:15:55;2.55;;;0.70;;
16824;SDS011;8529;48.108;-1.706;2022-08-25T11:18:26;2.65;;;0.50;;
16824;SDS011;8529;48.108;-1.706;2022-08-25T11:21:00;1.98;;;0.63;;
16824;SDS011;8529;48.108;-1.706;2022-08-25T11:23:34;2.85;;;0.80;;
16824;SDS011;8529;48.108;-1.706;2022-08-25T11:26:06;1.70;;;0.52;;
16824;SDS011;8529;48.108;-1.706;2022-08-25T11:28:39;1.67;;;0.50;;
16824;SDS011;8529;48.108;-1.706;2022-08-25T11:31:17;2.78;;;0.65;;
16824;SDS011;8529;48.108;-1.706;2022-08-25T11:33:47;0.70;;;0.60;;
16824;SDS011;8529;48.108;-1.706;2022-08-25T11:36:19;5.22;;;0.57;;
16824;SDS011;8529;48.108;-1.706;2022-08-25T11:38:55;1.85;;;0.47;;
16824;SDS011;8529;48.108;-1.706;2022-08-25T11:41:34;1.88;;;0.40;;
16824;SDS011;8529;48.108;-1.706;2022-08-25T11:44:17;2.40;;;0.40;;
16824;SDS011;8529;48.108;-1.706;2022-08-25T11:47:04;3.40;;;0.77;;
16824;SDS011;8529;48.108;-1.706;2022-08-25T11:49:50;2.88;;;0.50;;
16824;SDS011;8529;48.108;-1.706;2022-08-25T11:55:21;2.70;;;0.50;;
16824;SDS011;8529;48.108;-1.706;2022-08-25T11:58:12;1.20;;;0.47;;
16824;SDS011;8529;48.108;-1.706;2022-08-25T12:00:46;1.48;;;0.38;;
16824;SDS011;8529;48.108;-1.706;2022-08-25T12:06:17;2.20;;;0.40;;
16824;SDS011;8529;48.108;-1.706;2022-08-25T12:11:50;0.80;;;0.38;;
16824;SDS011;8529;48.108;-1.706;2022-08-25T12:17:22;2.10;;;0.40;;
16824;SDS011;8529;48.108;-1.706;2022-08-25T12:19:53;3.67;;;0.50;;
16824;SDS011;8529;48.108;-1.706;2022-08-25T12:25:41;1.63;;;0.40;;
16824;SDS011;8529;48.108;-1.706;2022-08-25T12:28:29;1.65;;;0.30;;
16824;SDS011;8529;48.108;-1.706;2022-08-25T12:31:10;0.50;;;0.38;;
16824;SDS011;8529;48.108;-1.706;2022-08-25T12:33:47;0.73;;;0.50;;
16824;SDS011;8529;48.108;-1.706;2022-08-25T12:36:26;2.72;;;0.50;;
16824;SDS011;8529;48.108;-1.706;2022-08-25T12:39:06;0.82;;;0.43;;
16824;SDS011;8529;48.108;-1.706;2022-08-25T12:41:51;1.05;;;0.70;;
16824;SDS011;8529;48.108;-1.706;2022-08-25T12:44:41;1.60;;;0.50;;
16824;SDS011;8529;48.108;-1.706;2022-08-25T12:47:27;0.52;;;0.40;;
16824;SDS011;8529;48.108;-1.706;2022-08-25T12:53:09;2.28;;;0.80;;
16824;SDS011;8529;48.108;-1.706;2022-08-25T12:55:38;1.83;;;0.82;;
16824;SDS011;8529;48.108;-1.706;2022-08-25T12:58:10;1.58;;;0.73;;
16824;SDS011;8529;48.108;-1.706;2022-08-25T13:00:45;2.15;;;0.80;;
16824;SDS011;8529;48.108;-1.706;2022-08-25T13:03:36;0.93;;;0.60;;
16824;SDS011;8529;48.108;-1.706;2022-08-25T13:12:25;0.77;;;0.77;;
16824;SDS011;8529;48.108;-1.706;2022-08-25T13:15:00;1.90;;;1.48;;
16824;SDS011;8529;48.108;-1.706;2022-08-25T13:17:28;1.55;;;1.02;;
16824;SDS011;8529;48.108;-1.706;2022-08-25T13:20:15;3.30;;;1.10;;
16824;SDS011;8529;48.108;-1.706;2022-08-25T13:22:45;3.05;;;1.05;;
16824;SDS011;8529;48.108;-1.706;2022-08-25T13:25:15;5.32;;;2.05;;
16824;SDS011;8529;48.108;-1.706;2022-08-25T13:27:47;2.10;;;1.20;;
16824;SDS011;8529;48.108;-1.706;2022-08-25T13:30:21;31.30;;;5.25;;
16824;SDS011;8529;48.108;-1.706;2022-08-25T13:32:50;4.47;;;1.50;;
16824;SDS011;8529;48.108;-1.706;2022-08-25T13:35:18;9.48;;;1.92;;
16824;SDS011;8529;48.108;-1.706;2022-08-25T13:37:47;5.32;;;1.88;;
16824;SDS011;8529;48.108;-1.706;2022-08-25T13:40:14;2.35;;;1.48;;
16824;SDS011;8529;48.108;-1.706;2022-08-25T13:42:47;3.65;;;2.03;;
16824;SDS011;8529;48.108;-1.706;2022-08-25T13:45:16;4.50;;;1.40;;
16824;SDS011;8529;48.108;-1.706;2022-08-25T13:47:46;40.17;;;6.95;;
16824;SDS011;8529;48.108;-1.706;2022-08-25T13:50:15;3.10;;;1.95;;
16824;SDS011;8529;48.108;-1.706;2022-08-25T13:52:46;3.38;;;1.52;;
16824;SDS011;8529;48.108;-1.706;2022-08-25T13:55:18;2.28;;;1.50;;
16824;SDS011;8529;48.108;-1.706;2022-08-25T13:57:46;3.28;;;2.00;;
16824;SDS011;8529;48.108;-1.706;2022-08-25T14:00:23;4.10;;;1.80;;
16824;SDS011;8529;48.108;-1.706;2022-08-25T14:02:53;5.93;;;2.20;;
16824;SDS011;8529;48.108;-1.706;2022-08-25T14:05:29;4.60;;;2.00;;
16824;SDS011;8529;48.108;-1.706;2022-08-25T14:08:02;9.95;;;3.00;;
16824;SDS011;8529;48.108;-1.706;2022-08-25T14:10:32;4.03;;;1.90;;
16824;SDS011;8529;48.108;-1.706;2022-08-25T14:13:12;8.60;;;2.78;;
16824;SDS011;8529;48.108;-1.706;2022-08-25T14:15:41;4.43;;;2.38;;
16824;SDS011;8529;48.108;-1.706;2022-08-25T14:18:13;4.68;;;1.83;;
16824;SDS011;8529;48.108;-1.706;2022-08-25T14:20:45;21.10;;;3.58;;
16824;SDS011;8529;48.108;-1.706;2022-08-25T14:23:15;60.20;;;10.45;;
16824;SDS011;8529;48.108;-1.706;2022-08-25T14:25:44;13.43;;;3.08;;
16824;SDS011;8529;48.108;-1.706;2022-08-25T14:28:12;4.57;;;1.80;;
16824;SDS011;8529;48.108;-1.706;2022-08-25T14:30:41;3.22;;;2.25;;
16824;SDS011;8529;48.108;-1.706;2022-08-25T14:33:10;2.40;;;1.90;;
16824;SDS011;8529;48.108;-1.706;2022-08-25T14:35:40;5.63;;;1.85;;
16824;SDS011;8529;48.108;-1.706;2022-08-25T14:38:09;3.03;;;1.75;;
16824;SDS011;8529;48.108;-1.706;2022-08-25T14:40:37;1.85;;;1.40;;
16824;SDS011;8529;48.108;-1.706;2022-08-25T14:43:04;1.60;;;1.48;;
16824;SDS011;8529;48.108;-1.706;2022-08-25T14:45:31;1.55;;;1.00;;
16824;SDS011;8529;48.108;-1.706;2022-08-25T14:48:02;1.38;;;1.27;;
16824;SDS011;8529;48.108;-1.706;2022-08-25T14:50:33;4.22;;;1.52;;
16824;SDS011;8529;48.108;-1.706;2022-08-25T14:53:01;2.10;;;1.40;;
16824;SDS011;8529;48.108;-1.706;2022-08-25T14:55:28;2.72;;;1.63;;
16824;SDS011;8529;48.108;-1.706;2022-08-25T14:57:55;2.13;;;1.60;;
16824;SDS011;8529;48.108;-1.706;2022-08-25T15:00:22;2.80;;;1.90;;
16824;SDS011;8529;48.108;-1.706;2022-08-25T15:02:49;2.60;;;1.50;;
16824;SDS011;8529;48.108;-1.706;2022-08-25T15:05:19;8.43;;;2.13;;
16824;SDS011;8529;48.108;-1.706;2022-08-25T15:07:52;1.92;;;1.63;;
16824;SDS011;8529;48.108;-1.706;2022-08-25T15:10:37;2.05;;;1.58;;
16824;SDS011;8529;48.108;-1.706;2022-08-25T15:13:05;3.95;;;2.05;;
16824;SDS011;8529;48.108;-1.706;2022-08-25T15:15:33;3.15;;;1.80;;
16824;SDS011;8529;48.108;-1.706;2022-08-25T15:18:04;2.38;;;1.58;;
16824;SDS011;8529;48.108;-1.706;2022-08-25T15:20:31;2.25;;;1.35;;
16824;SDS011;8529;48.108;-1.706;2022-08-25T15:23:00;2.10;;;1.63;;
16824;SDS011;8529;48.108;-1.706;2022-08-25T15:25:27;3.03;;;1.35;;
16824;SDS011;8529;48.108;-1.706;2022-08-25T15:27:54;2.13;;;1.38;;
16824;SDS011;8529;48.108;-1.706;2022-08-25T15:30:21;3.25;;;1.60;;
16824;SDS011;8529;48.108;-1.706;2022-08-25T15:32:48;1.85;;;1.50;;